createdAt,value
2023-01-23T14:20:39.498Z,68.59
2023-01-23T14:21:30.339Z,68.64
2023-01-23T14:22:06.185Z,68.60
2023-01-23T14:22:38.552Z,68.70
2023-01-23T14:23:32.379Z,68.89
2023-01-23T14:24:20.330Z,69.14
2023-01-23T14:24:53.396Z,69.13
2023-01-23T14:25:26.278Z,68.95
2023-01-23T14:25:58.950Z,69.04
2023-01-23T14:26:32.526Z,68.90
2023-01-23T14:27:09.530Z,69.24
2023-01-23T14:27:52.887Z,69.38
2023-01-23T14:28:25.986Z,69.16
2023-01-23T14:29:03.036Z,69.29
2023-01-23T14:29:35.462Z,69.30
2023-01-23T14:30:18.224Z,69.40
2023-01-23T14:30:54.985Z,69.49
2023-01-23T14:31:29.683Z,69.73
2023-01-23T14:32:02.154Z,69.93
2023-01-23T14:32:34.540Z,69.86
2023-01-23T14:33:17.276Z,69.87
2023-01-23T14:33:50.821Z,69.87
2023-01-23T14:34:25.067Z,70.32
2023-01-23T14:34:57.476Z,70.23
2023-01-23T14:35:32.206Z,70.39
2023-01-23T14:37:04.611Z,70.41
2023-01-23T14:37:37.205Z,70.21
2023-01-23T14:38:12.459Z,70.52
2023-01-23T14:38:49.324Z,70.27
2023-01-23T14:39:24.966Z,70.38
2023-01-23T14:40:02.006Z,70.56
2023-01-23T14:40:50.807Z,70.75
2023-01-23T14:41:44.869Z,70.46
2023-01-23T14:59:16.377Z,70.24
2023-01-23T14:59:50.941Z,70.20
2023-01-23T15:00:23.966Z,70.35
2023-01-23T15:00:57.264Z,70.63
2023-01-23T15:01:29.735Z,70.71
2023-01-23T15:02:34.345Z,70.31
2023-01-23T15:03:08.479Z,70.45
2023-01-23T15:03:43.470Z,70.38
2023-01-23T15:04:23.536Z,70.29
2023-01-23T15:05:59.495Z,51.76
2023-01-23T15:06:34.140Z,65.73
2023-01-23T15:07:06.631Z,69.25
2023-01-23T15:07:56.041Z,69.48
2023-01-23T15:09:17.023Z,52.39
2023-01-23T15:09:49.267Z,63.94
2023-01-23T15:10:27.422Z,68.96
2023-01-23T15:11:01.827Z,69.94
2023-01-23T15:11:34.566Z,69.91
2023-01-23T15:12:08.400Z,69.65
2023-01-23T15:12:51.707Z,69.68
2023-01-23T15:13:31.650Z,69.68
2023-01-23T15:14:04.135Z,69.66
2023-01-23T15:14:39.981Z,69.87
2023-01-23T15:15:18.972Z,69.78
2023-01-23T15:16:03.219Z,69.80
2023-01-23T15:16:38.120Z,69.67
2023-01-23T15:17:21.026Z,69.78
2023-01-23T15:17:54.390Z,69.54
2023-01-23T15:18:33.216Z,69.77
2023-01-23T15:19:21.118Z,69.76
2023-01-23T15:19:59.461Z,69.66
2023-01-23T15:20:43.440Z,69.80
2023-01-23T15:21:26.272Z,69.70
2023-01-23T15:22:07.326Z,69.77
2023-01-23T15:22:39.792Z,69.87
2023-01-23T15:23:18.013Z,69.96
2023-01-23T15:24:17.355Z,69.81
2023-01-23T15:24:49.700Z,70.11
2023-01-23T15:25:28.791Z,70.16
2023-01-23T15:26:12.841Z,70.00
2023-01-23T15:26:57.219Z,69.98
2023-01-23T15:27:34.423Z,69.99
2023-01-23T15:28:32.349Z,70.21
2023-01-23T15:29:07.246Z,70.23
2023-01-23T15:29:39.574Z,70.32
2023-01-23T15:30:29.878Z,70.58
2023-01-23T15:31:02.271Z,70.62
2023-01-23T15:31:40.776Z,70.58
2023-01-23T15:32:21.774Z,70.78
2023-01-23T15:32:54.706Z,70.80
2023-01-23T15:33:31.907Z,70.66
2023-01-23T15:34:16.102Z,70.87
2023-01-23T15:34:57.557Z,70.94
2023-01-23T15:35:29.952Z,71.06
2023-01-23T15:36:08.631Z,71.45
2023-01-23T15:36:56.072Z,71.06
2023-01-23T15:37:28.435Z,71.18
2023-01-23T15:38:05.090Z,71.36
2023-01-23T15:38:37.906Z,71.52
2023-01-23T15:39:21.445Z,71.46
2023-01-23T15:39:57.367Z,71.03
2023-01-23T15:40:31.318Z,71.42
2023-01-23T15:41:09.545Z,71.41
2023-01-23T15:41:48.255Z,71.32
2023-01-23T15:42:28.279Z,71.35
2023-01-23T15:43:12.124Z,71.39
2023-01-23T15:43:44.454Z,71.61
2023-01-23T15:44:19.773Z,71.86
2023-01-23T15:44:52.111Z,71.96
2023-01-23T15:45:24.383Z,71.82
2023-01-23T15:45:56.781Z,71.70
2023-01-23T15:46:29.243Z,71.85
2023-01-23T15:47:03.400Z,71.91
2023-01-23T15:47:36.012Z,72.48
2023-01-23T15:48:08.614Z,72.39
2023-01-23T15:48:40.954Z,72.34
2023-01-23T15:49:24.460Z,72.33
2023-01-23T15:50:03.045Z,72.74
2023-01-23T15:50:35.641Z,72.31
2023-01-23T15:51:11.558Z,72.40
2023-01-23T15:51:43.925Z,72.55
2023-01-23T15:52:25.085Z,72.59
2023-01-23T15:52:57.423Z,72.58
2023-01-23T15:53:30.066Z,72.94
2023-01-23T15:54:03.874Z,72.84
2023-01-23T15:54:37.667Z,72.72
2023-01-23T15:55:10.835Z,72.97
2023-01-23T15:55:43.193Z,72.99
2023-01-23T15:56:26.605Z,73.06
2023-01-23T15:57:07.161Z,72.92
2023-01-23T15:57:41.838Z,72.86
2023-01-23T15:58:17.206Z,72.99
2023-01-23T15:58:49.521Z,72.73
2023-01-23T15:59:21.831Z,72.98
2023-01-23T15:59:54.166Z,72.59
2023-01-23T16:00:28.187Z,72.37
2023-01-23T16:01:00.520Z,72.85
2023-01-23T16:01:32.976Z,73.39
2023-01-23T16:02:08.234Z,72.82
2023-01-23T16:02:55.149Z,72.71
2023-01-23T16:03:28.801Z,72.60
2023-01-23T16:04:01.166Z,72.56
2023-01-23T16:04:34.186Z,72.61
2023-01-23T16:05:07.879Z,72.49
2023-01-23T16:05:40.809Z,72.43
2023-01-23T16:06:21.089Z,72.43
2023-01-23T16:06:53.565Z,72.33
2023-01-23T16:07:30.739Z,72.03
2023-01-23T16:08:05.816Z,72.03
2023-01-23T16:08:38.253Z,72.54
2023-01-23T16:09:47.250Z,72.39
2023-01-23T16:10:31.690Z,72.37
2023-01-23T16:11:04.074Z,72.33
2023-01-23T16:11:38.251Z,72.57
2023-01-23T16:12:17.410Z,72.10
2023-01-23T16:12:52.247Z,72.59
2023-01-23T16:13:24.565Z,72.75
2023-01-23T16:13:56.875Z,72.66
2023-01-23T16:14:29.166Z,72.49
2023-01-23T16:15:01.464Z,72.23
2023-01-23T16:15:35.310Z,72.13
2023-01-23T16:16:14.135Z,71.99
2023-01-23T16:16:47.003Z,72.30
2023-01-23T16:17:19.328Z,72.14
2023-01-23T16:17:52.371Z,72.27
2023-01-23T16:18:24.757Z,72.12
2023-01-23T16:18:57.062Z,72.12
2023-01-23T16:19:29.380Z,72.10
2023-01-23T16:20:01.805Z,72.10
2023-01-23T16:20:39.917Z,72.19
2023-01-23T16:21:28.831Z,72.28
2023-01-23T16:22:05.271Z,71.93
2023-01-23T16:22:37.937Z,71.86
2023-01-23T16:23:35.731Z,71.85
2023-01-23T16:24:21.995Z,71.61
2023-01-23T16:24:54.325Z,71.91
2023-01-23T16:25:43.625Z,71.56
2023-01-23T16:26:21.721Z,71.51
2023-01-23T16:26:56.583Z,71.41
2023-01-23T16:27:29.021Z,71.37
2023-01-23T16:28:01.411Z,71.12
2023-01-23T16:28:34.079Z,71.22
2023-01-23T16:29:13.693Z,71.43
2023-01-23T16:29:49.507Z,71.18
2023-01-23T16:30:23.543Z,70.89
2023-01-23T16:30:55.878Z,71.23
2023-01-23T16:31:28.357Z,71.10
2023-01-23T16:32:02.385Z,71.08
2023-01-23T16:32:34.896Z,70.74
2023-01-23T16:33:07.555Z,70.45
2023-01-23T16:33:39.837Z,70.42
2023-01-23T16:34:12.160Z,70.43
2023-01-23T16:34:44.496Z,70.34
2023-01-23T16:35:17.247Z,70.24
2023-01-23T16:35:52.563Z,70.42
2023-01-23T16:36:24.878Z,70.48
2023-01-23T16:36:58.825Z,70.19
2023-01-23T16:37:31.310Z,70.25
2023-01-23T16:38:04.243Z,70.03
2023-01-23T16:38:36.621Z,69.83
2023-01-23T16:39:20.376Z,70.07
2023-01-23T16:39:52.680Z,70.11
2023-01-23T16:40:27.521Z,69.99
2023-01-23T16:41:02.223Z,70.22
2023-01-23T16:41:34.572Z,70.13
2023-01-23T16:42:06.912Z,70.45
2023-01-23T16:42:39.387Z,70.00
2023-01-23T16:43:11.700Z,69.93
2023-01-23T16:43:44.045Z,69.95
2023-01-23T16:44:18.672Z,69.93
2023-01-23T16:44:51.049Z,70.09
2023-01-23T16:45:25.831Z,70.13
2023-01-23T16:45:58.337Z,70.13
2023-01-23T16:46:30.717Z,69.90
2023-01-23T16:47:03.169Z,69.76
2023-01-23T16:47:35.494Z,69.70
2023-01-23T16:48:10.979Z,70.16
2023-01-23T16:48:50.524Z,69.68
2023-01-23T16:49:22.866Z,69.71
2023-01-23T16:49:55.181Z,69.64
2023-01-23T16:50:36.789Z,69.60
2023-01-23T16:51:17.965Z,69.44
2023-01-23T16:51:59.518Z,69.42
2023-01-23T16:52:31.922Z,69.52
2023-01-23T16:53:20.810Z,69.62
2023-01-23T16:53:56.347Z,69.50
2023-01-23T16:54:28.789Z,69.65
2023-01-23T16:55:01.315Z,69.58
2023-01-23T16:55:36.938Z,69.44
2023-01-23T16:56:25.177Z,69.43
2023-01-23T16:56:58.197Z,69.53
2023-01-23T16:57:31.097Z,69.42
2023-01-23T16:58:05.357Z,69.40
2023-01-23T16:58:39.673Z,69.67
2023-01-23T16:59:16.365Z,69.40
2023-01-23T16:59:50.020Z,69.49
2023-01-23T17:00:33.951Z,69.70
2023-01-23T17:01:21.968Z,69.74
2023-01-23T17:01:54.427Z,69.24
2023-01-23T17:02:29.809Z,69.22
2023-01-23T17:03:05.119Z,69.32
2023-01-23T17:03:40.835Z,69.37
2023-01-23T17:04:16.697Z,69.99
2023-01-23T17:04:49.016Z,69.86
2023-01-23T17:05:22.309Z,69.31
2023-01-23T17:05:55.024Z,69.31
2023-01-23T17:06:27.335Z,69.26
2023-01-23T17:06:59.688Z,69.37
2023-01-23T17:07:32.047Z,69.31
2023-01-23T17:08:17.305Z,69.34
2023-01-23T17:08:50.266Z,69.56
2023-01-23T17:09:23.712Z,69.87
2023-01-23T17:09:56.108Z,69.43
2023-01-23T17:10:38.018Z,69.40
2023-01-23T17:11:24.366Z,69.29
2023-01-23T17:11:57.332Z,69.53
2023-01-23T17:12:34.090Z,69.20
2023-01-23T17:13:06.463Z,69.06
2023-01-23T17:13:38.849Z,69.15
2023-01-23T17:14:36.529Z,69.41
2023-01-23T17:15:19.958Z,69.47
2023-01-23T17:15:55.187Z,69.62
2023-01-23T17:16:28.179Z,69.32
2023-01-23T17:17:11.206Z,69.58
2023-01-23T17:17:45.370Z,69.68
2023-01-23T17:18:29.358Z,69.81
2023-01-23T17:19:09.513Z,70.13
2023-01-23T17:19:42.921Z,70.22
2023-01-23T17:20:15.367Z,69.90
2023-01-23T17:20:47.687Z,69.95
2023-01-23T17:21:23.708Z,69.62
2023-01-23T17:21:57.092Z,70.00
2023-01-23T17:22:32.472Z,69.87
2023-01-23T17:23:04.748Z,69.50
2023-01-23T17:23:37.273Z,69.54
2023-01-23T17:24:15.584Z,69.84
2023-01-23T17:24:48.079Z,69.73
2023-01-23T17:25:23.470Z,69.68
2023-01-23T17:26:00.750Z,69.93
2023-01-23T17:26:33.831Z,69.83
2023-01-23T17:27:06.220Z,69.70
2023-01-23T17:27:44.970Z,69.52
2023-01-23T17:28:19.695Z,69.85
2023-01-23T17:28:52.034Z,69.79
2023-01-23T17:29:24.801Z,69.66
2023-01-23T17:29:57.102Z,69.91
2023-01-23T17:30:29.372Z,69.74
2023-01-23T17:31:01.910Z,69.56
2023-01-23T17:31:34.396Z,69.76
2023-01-23T17:32:06.953Z,69.73
2023-01-23T17:32:40.590Z,69.63
2023-01-23T17:33:20.007Z,69.80
2023-01-23T17:33:52.746Z,69.66
2023-01-23T17:34:26.803Z,69.64
2023-01-23T17:35:02.525Z,69.66
2023-01-23T17:35:37.248Z,70.08
2023-01-23T17:36:09.589Z,69.98
2023-01-23T17:36:41.861Z,70.24
2023-01-23T17:37:22.723Z,70.05
2023-01-23T17:37:57.926Z,69.50
2023-01-23T17:38:35.200Z,69.80
2023-01-23T17:39:09.299Z,69.85
2023-01-23T17:39:41.605Z,70.19
2023-01-23T17:40:15.120Z,70.34
2023-01-23T17:40:48.269Z,70.04
2023-01-23T17:41:20.555Z,70.08
2023-01-23T17:41:52.947Z,70.02
2023-01-23T17:42:25.313Z,70.13
2023-01-23T17:42:57.648Z,69.82
2023-01-23T17:43:29.948Z,69.77
2023-01-23T17:44:02.237Z,70.26
2023-01-23T17:44:34.546Z,70.91
2023-01-23T17:45:08.834Z,70.11
2023-01-23T17:45:43.989Z,70.11
2023-01-23T17:46:22.160Z,70.22
2023-01-23T17:46:54.785Z,70.35
2023-01-23T17:47:27.388Z,71.19
2023-01-23T17:47:59.894Z,70.29
2023-01-23T17:48:34.659Z,69.74
2023-01-23T17:49:23.967Z,69.93
2023-01-23T17:49:56.669Z,70.03
2023-01-23T17:50:28.995Z,70.25
2023-01-23T17:51:01.377Z,70.32
2023-01-23T17:51:34.032Z,70.36
2023-01-23T17:52:06.615Z,70.14
2023-01-23T17:52:38.929Z,69.96
2023-01-23T17:53:13.609Z,70.86
2023-01-23T17:53:46.791Z,70.84
2023-01-23T17:54:19.784Z,70.52
2023-01-23T17:54:52.098Z,70.76
2023-01-23T17:55:28.735Z,70.87
2023-01-23T17:56:01.049Z,70.85
2023-01-23T17:56:33.436Z,70.49
2023-01-23T17:57:05.760Z,70.18
2023-01-23T17:57:38.116Z,70.14
2023-01-23T17:58:10.481Z,69.83
2023-01-23T17:58:43.301Z,70.03
2023-01-23T17:59:15.607Z,70.46
2023-01-23T17:59:47.932Z,71.03
2023-01-23T18:00:21.546Z,71.51
2023-01-23T18:00:56.032Z,70.71
2023-01-23T18:01:28.803Z,70.46
2023-01-23T18:02:01.284Z,70.28
2023-01-23T18:02:33.797Z,70.72
2023-01-23T18:03:08.566Z,71.18
2023-01-23T18:03:41.255Z,71.02
2023-01-23T18:04:20.409Z,71.02
2023-01-23T18:04:52.695Z,70.48
2023-01-23T18:05:25.740Z,70.70
2023-01-23T18:05:58.089Z,70.65
2023-01-23T18:06:30.602Z,70.46
2023-01-23T18:07:02.909Z,71.20
2023-01-23T18:07:48.530Z,70.75
2023-01-23T18:08:25.203Z,71.16
2023-01-23T18:08:57.506Z,71.50
2023-01-23T18:09:29.820Z,71.24
2023-01-23T18:10:02.114Z,70.73
2023-01-23T18:10:35.357Z,70.70
2023-01-23T18:11:16.900Z,70.63
2023-01-23T18:11:52.577Z,70.52
2023-01-23T18:12:51.483Z,70.76
2023-01-23T18:13:32.711Z,70.79
2023-01-23T18:14:42.667Z,70.59
2023-01-23T18:15:43.299Z,70.85
2023-01-23T18:16:24.843Z,71.26
2023-01-23T18:16:57.670Z,71.05
2023-01-23T18:17:40.144Z,71.19
2023-01-23T18:18:21.493Z,70.86
2023-01-23T18:19:03.719Z,71.16
2023-01-23T18:19:36.210Z,71.40
2023-01-23T18:20:28.177Z,71.35
2023-01-23T18:21:01.799Z,71.36
2023-01-23T18:21:34.306Z,71.11
2023-01-23T18:22:10.003Z,71.23
2023-01-23T18:22:42.594Z,71.59
2023-01-23T18:23:15.087Z,71.44
2023-01-23T18:23:47.823Z,71.44
2023-01-23T18:24:27.039Z,71.15
2023-01-23T18:24:59.685Z,71.39
2023-01-23T18:25:32.205Z,71.61
2023-01-23T18:26:20.786Z,71.79
2023-01-23T18:26:57.150Z,72.19
2023-01-23T18:27:31.545Z,72.20
2023-01-23T18:28:12.687Z,71.60
2023-01-23T18:28:55.537Z,71.41
2023-01-23T18:29:33.676Z,71.08
2023-01-23T18:30:50.941Z,71.05
2023-01-23T18:31:34.647Z,71.77
2023-01-23T18:32:26.510Z,71.45
2023-01-23T18:33:33.508Z,71.56
2023-01-23T18:34:42.925Z,70.71
2023-01-23T18:35:21.494Z,71.48
2023-01-23T18:36:17.455Z,71.38
2023-01-23T18:37:04.730Z,71.47
2023-01-23T18:37:51.649Z,71.29
2023-01-23T18:38:49.713Z,71.27
2023-01-23T18:39:49.850Z,71.56
2023-01-23T18:40:40.820Z,70.95
2023-01-23T18:41:22.242Z,72.00
2023-01-23T18:42:11.302Z,72.32
2023-01-23T18:43:00.747Z,71.89
2023-01-23T18:43:43.652Z,71.70
2023-01-23T18:44:24.033Z,70.83
2023-01-23T18:44:59.530Z,70.92
2023-01-23T18:45:32.437Z,71.07
2023-01-23T18:46:08.250Z,70.68
2023-01-23T18:46:41.486Z,70.57
2023-01-23T18:47:16.999Z,70.57
2023-01-23T18:47:49.563Z,71.57
2023-01-23T18:48:25.779Z,71.77
2023-01-23T18:48:58.857Z,71.43
2023-01-23T18:49:33.101Z,70.59
2023-01-23T18:50:06.757Z,70.64
2023-01-23T18:50:46.578Z,70.63
2023-01-23T18:51:40.692Z,71.23
2023-01-23T18:52:19.476Z,71.89
2023-01-23T18:53:26.558Z,71.03
2023-01-23T18:54:09.922Z,71.47
2023-01-23T18:55:07.813Z,72.76
2023-01-23T18:56:10.458Z,71.46
2023-01-23T18:56:52.518Z,71.34
2023-01-23T18:57:45.094Z,71.25
2023-01-23T18:58:41.411Z,71.72
2023-01-23T18:59:16.350Z,72.30
2023-01-23T19:00:33.000Z,71.16
2023-01-23T19:01:54.582Z,71.33
2023-01-23T19:02:31.512Z,71.51
2023-01-23T19:03:17.902Z,71.97
2023-01-23T19:03:50.812Z,71.77
2023-01-23T19:04:45.968Z,71.78
2023-01-23T19:05:33.465Z,71.14
2023-01-23T19:06:12.941Z,72.18
2023-01-23T19:06:46.117Z,71.26
2023-01-23T19:07:19.436Z,70.93
2023-01-23T19:07:51.892Z,70.72
2023-01-23T19:08:28.353Z,71.63
2023-01-23T19:09:00.852Z,72.64
2023-01-23T19:09:34.404Z,72.10
2023-01-23T19:10:12.983Z,71.72
2023-01-23T19:10:49.230Z,71.67
2023-01-23T19:11:32.838Z,72.52
2023-01-23T19:12:24.871Z,72.69
2023-01-23T19:13:12.933Z,73.31
2023-01-23T19:13:59.651Z,72.42
2023-01-23T19:14:45.351Z,71.72
2023-01-23T19:15:23.248Z,72.28
2023-01-23T19:16:13.665Z,72.21
2023-01-23T19:16:54.459Z,72.00
2023-01-23T19:17:43.403Z,71.63
2023-01-23T19:18:39.818Z,71.23
2023-01-23T19:19:26.933Z,72.03
2023-01-23T19:20:20.295Z,72.09
2023-01-23T19:21:23.091Z,71.40
2023-01-23T19:21:55.756Z,71.17
2023-01-23T19:22:43.018Z,71.38
2023-01-23T19:23:42.551Z,71.25
2023-01-23T19:24:18.145Z,71.28
2023-01-23T19:24:50.716Z,71.45
2023-01-23T19:25:23.594Z,71.03
2023-01-23T19:25:56.132Z,71.97
2023-01-23T19:26:32.056Z,71.70
2023-01-23T19:27:05.759Z,70.78
2023-01-23T19:27:38.073Z,71.18
2023-01-23T19:28:10.417Z,72.42
2023-01-23T19:28:43.330Z,72.69
2023-01-23T19:29:21.891Z,72.72
2023-01-23T19:29:54.699Z,73.06
2023-01-23T19:30:27.306Z,72.22
2023-01-23T19:30:59.895Z,71.53
2023-01-23T19:31:34.457Z,71.51
2023-01-23T19:32:09.755Z,71.47
2023-01-23T19:32:44.112Z,72.07
2023-01-23T19:33:18.080Z,72.31
2023-01-23T19:33:50.889Z,72.00
2023-01-23T19:34:23.233Z,72.38
2023-01-23T19:34:58.258Z,71.71
2023-01-23T19:35:34.986Z,72.06
2023-01-23T19:36:11.297Z,72.76
2023-01-23T19:36:43.624Z,72.33
2023-01-23T19:37:15.957Z,72.14
2023-01-23T19:37:48.466Z,71.77
2023-01-23T19:38:22.650Z,71.81
2023-01-23T19:39:06.695Z,71.48
2023-01-23T19:39:39.017Z,72.03
2023-01-23T19:40:13.547Z,72.85
2023-01-23T19:40:46.076Z,73.71
2023-01-23T19:41:24.566Z,73.45
2023-01-23T19:41:58.937Z,72.25
2023-01-23T19:42:38.760Z,72.59
2023-01-23T19:43:21.562Z,72.73
2023-01-23T19:43:56.224Z,72.06
2023-01-23T19:44:31.304Z,72.23
2023-01-23T19:45:03.869Z,71.96
2023-01-23T19:45:36.148Z,72.36
2023-01-23T19:46:08.669Z,72.28
2023-01-23T19:46:41.842Z,72.59
2023-01-23T19:47:14.224Z,74.00
2023-01-23T19:47:49.115Z,73.36
2023-01-23T19:48:21.416Z,72.92
2023-01-23T19:48:54.870Z,72.77
2023-01-23T19:49:27.330Z,72.99
2023-01-23T19:49:59.628Z,73.55
2023-01-23T19:50:31.953Z,73.24
2023-01-23T19:51:04.343Z,73.51
2023-01-23T19:51:37.409Z,73.58
2023-01-23T19:52:14.460Z,73.03
2023-01-23T19:52:48.413Z,72.94
2023-01-23T19:53:20.769Z,73.26
2023-01-23T19:53:53.813Z,72.98
2023-01-23T19:54:26.087Z,73.14
2023-01-23T19:54:58.391Z,73.76
2023-01-23T19:55:33.020Z,73.10
2023-01-23T19:56:05.682Z,72.75
2023-01-23T19:56:39.376Z,74.27
2023-01-23T19:57:13.520Z,74.22
2023-01-23T19:57:45.867Z,73.74
2023-01-23T19:58:18.173Z,73.14
2023-01-23T19:58:50.498Z,73.47
2023-01-23T19:59:23.658Z,73.43
2023-01-23T19:59:55.996Z,73.12
2023-01-23T20:00:32.577Z,72.88
2023-01-23T20:01:14.543Z,73.09
2023-01-23T20:01:50.761Z,73.00
2023-01-23T20:02:25.379Z,72.90
2023-01-23T20:02:58.348Z,73.49
2023-01-23T20:03:30.662Z,72.83
2023-01-23T20:04:04.199Z,73.65
2023-01-23T20:04:36.507Z,73.93
2023-01-23T20:05:09.261Z,73.33
2023-01-23T20:05:41.550Z,73.35
2023-01-23T20:06:13.898Z,73.23
2023-01-23T20:06:48.781Z,73.56
2023-01-23T20:07:21.081Z,74.26
2023-01-23T20:07:56.781Z,74.98
2023-01-23T20:08:29.159Z,73.56
2023-01-23T20:09:01.508Z,73.30
2023-01-23T20:09:33.836Z,73.48
2023-01-23T20:10:07.492Z,73.27
2023-01-23T20:10:39.829Z,73.49
2023-01-23T20:11:12.634Z,73.80
2023-01-23T20:11:46.235Z,74.20
2023-01-23T20:12:18.542Z,73.77
2023-01-23T20:12:52.215Z,73.30
2023-01-23T20:13:24.607Z,73.17
2023-01-23T20:13:56.923Z,73.85
2023-01-23T20:14:29.744Z,73.36
2023-01-23T20:15:02.015Z,72.86
2023-01-23T20:15:34.322Z,73.56
2023-01-23T20:16:12.585Z,73.38
2023-01-23T20:16:44.925Z,74.94
2023-01-23T20:17:17.200Z,74.66
2023-01-23T20:17:49.555Z,73.54
2023-01-23T20:18:22.227Z,72.89
2023-01-23T20:18:54.998Z,72.93
2023-01-23T20:19:27.288Z,73.53
2023-01-23T20:19:59.768Z,72.95
2023-01-23T20:20:32.103Z,72.79
2023-01-23T20:21:04.761Z,73.10
2023-01-23T20:21:37.067Z,73.14
2023-01-23T20:22:09.430Z,73.44
2023-01-23T20:22:42.871Z,73.17
2023-01-23T20:23:15.190Z,72.96
2023-01-23T20:23:48.336Z,72.54
2023-01-23T20:24:20.688Z,73.12
2023-01-23T20:24:53.013Z,73.92
2023-01-23T20:25:25.296Z,75.14
2023-01-23T20:26:01.563Z,73.56
2023-01-23T20:26:33.868Z,72.99
2023-01-23T20:27:06.143Z,73.37
2023-01-23T20:27:38.858Z,73.14
2023-01-23T20:28:11.269Z,73.73
2023-01-23T20:28:47.125Z,74.08
2023-01-23T20:29:19.451Z,73.82
2023-01-23T20:29:52.184Z,73.42
2023-01-23T20:30:24.806Z,73.69
2023-01-23T20:30:57.507Z,73.77
2023-01-23T20:31:30.259Z,72.73
2023-01-23T20:32:02.747Z,72.67
2023-01-23T20:32:35.492Z,72.49
2023-01-23T20:33:07.882Z,72.82
2023-01-23T20:33:40.420Z,72.93
2023-01-23T20:34:12.773Z,73.19
2023-01-23T20:34:45.076Z,73.92
2023-01-23T20:35:17.436Z,73.84
2023-01-23T20:35:53.860Z,73.67
2023-01-23T20:36:26.174Z,75.06
2023-01-23T20:36:58.502Z,75.42
2023-01-23T20:37:30.881Z,74.27
2023-01-23T20:38:03.199Z,73.86
2023-01-23T20:38:35.511Z,74.08
2023-01-23T20:39:07.952Z,75.62
2023-01-23T20:39:40.875Z,75.04
2023-01-23T20:40:13.263Z,73.65
2023-01-23T20:40:45.627Z,74.26
2023-01-23T20:41:19.668Z,73.29
2023-01-23T20:41:52.884Z,73.53
2023-01-23T20:42:25.216Z,73.87
2023-01-23T20:42:57.524Z,74.04
2023-01-23T20:43:29.930Z,73.84
2023-01-23T20:44:02.352Z,74.09
2023-01-23T20:44:34.638Z,74.53
2023-01-23T20:45:07.944Z,75.15
2023-01-23T20:45:51.720Z,74.26
2023-01-23T20:46:24.177Z,74.54
2023-01-23T20:46:56.512Z,73.72
2023-01-23T20:47:28.852Z,73.41
2023-01-23T20:48:01.249Z,73.50
2023-01-23T20:48:35.063Z,73.66
2023-01-23T20:49:07.362Z,73.43
2023-01-23T20:49:39.665Z,73.74
2023-01-23T20:50:12.206Z,74.67
2023-01-23T20:50:45.084Z,73.98
2023-01-23T20:51:17.461Z,73.48
2023-01-23T20:51:49.818Z,73.04
2023-01-23T20:52:40.836Z,73.48
2023-01-23T20:53:29.839Z,73.55
2023-01-23T20:54:02.159Z,74.48
2023-01-23T20:54:34.441Z,74.28
2023-01-23T20:55:07.147Z,74.88
2023-01-23T20:55:39.509Z,74.13
2023-01-23T20:56:14.701Z,74.69
2023-01-23T20:56:47.055Z,74.90
2023-01-23T20:57:19.413Z,74.41
2023-01-23T20:58:09.964Z,74.78
2023-01-23T20:59:03.069Z,74.36
2023-01-23T20:59:35.339Z,74.62
2023-01-23T21:00:08.428Z,75.14
2023-01-23T21:00:40.759Z,74.31
2023-01-23T21:01:13.618Z,73.82
2023-01-23T21:02:05.085Z,73.54
2023-01-23T21:02:37.444Z,74.87
2023-01-23T21:03:09.840Z,72.75
2023-01-23T21:03:42.323Z,72.84
2023-01-23T21:04:14.598Z,74.26
2023-01-23T21:04:47.065Z,74.76
2023-01-23T21:05:19.648Z,74.67
2023-01-23T21:05:52.287Z,74.35
2023-01-23T21:06:24.570Z,73.39
2023-01-23T21:06:57.185Z,72.89
2023-01-23T21:07:29.463Z,72.72
2023-01-23T21:08:01.796Z,73.00
2023-01-23T21:08:34.661Z,73.18
2023-01-23T21:09:06.973Z,73.40
2023-01-23T21:09:39.285Z,73.69
2023-01-23T21:10:11.644Z,73.92
2023-01-23T21:10:43.941Z,73.14
2023-01-23T21:11:19.030Z,74.31
2023-01-23T21:11:52.478Z,74.94
2023-01-23T21:12:24.765Z,72.91
2023-01-23T21:12:57.035Z,73.49
2023-01-23T21:13:29.334Z,74.36
2023-01-23T21:14:01.693Z,73.62
2023-01-23T21:14:35.539Z,73.23
2023-01-23T21:15:08.531Z,73.47
2023-01-23T21:15:41.465Z,72.46
2023-01-23T21:16:16.414Z,73.63
2023-01-23T21:16:49.493Z,73.89
2023-01-23T21:17:21.789Z,73.46
2023-01-23T21:17:54.059Z,73.92
2023-01-23T21:18:26.458Z,74.48
2023-01-23T21:18:58.763Z,75.10
2023-01-23T21:19:31.996Z,74.39
2023-01-23T21:20:04.594Z,74.15
2023-01-23T21:20:39.231Z,74.10
2023-01-23T21:21:15.051Z,73.46
2023-01-23T21:21:47.847Z,74.48
2023-01-23T21:22:20.180Z,75.07
2023-01-23T21:22:52.454Z,75.06
2023-01-23T21:23:24.759Z,73.77
2023-01-23T21:23:57.081Z,74.61
2023-01-23T21:24:29.384Z,74.74
2023-01-23T21:25:01.950Z,73.94
2023-01-23T21:25:35.646Z,73.97
2023-01-23T21:26:08.734Z,73.71
2023-01-23T21:26:41.627Z,74.97
2023-01-23T21:27:13.984Z,75.06
2023-01-23T21:27:46.303Z,73.90
2023-01-23T21:28:18.602Z,73.85
2023-01-23T21:28:52.442Z,73.83
2023-01-23T21:29:24.755Z,73.43
2023-01-23T21:29:57.082Z,73.48
2023-01-23T21:30:29.359Z,74.01
2023-01-23T21:31:13.462Z,75.70
2023-01-23T21:31:46.013Z,76.19
2023-01-23T21:32:18.356Z,74.88
2023-01-23T21:32:51.294Z,73.54
2023-01-23T21:33:24.002Z,74.57
2023-01-23T21:33:59.452Z,74.21
2023-01-23T21:34:31.762Z,74.14
2023-01-23T21:35:04.188Z,73.84
2023-01-23T21:35:36.548Z,72.79
2023-01-23T21:36:09.104Z,72.81
2023-01-23T21:36:42.751Z,73.83
2023-01-23T21:37:15.146Z,73.45
2023-01-23T21:37:47.452Z,73.45
2023-01-23T21:38:20.734Z,72.87
2023-01-23T21:38:53.608Z,72.59
2023-01-23T21:39:26.002Z,73.16
2023-01-23T21:39:58.272Z,73.21
2023-01-23T21:40:30.585Z,73.12
2023-01-23T21:41:02.915Z,73.45
2023-01-23T21:41:35.349Z,73.85
2023-01-23T21:42:07.608Z,72.90
2023-01-23T21:42:39.895Z,72.31
2023-01-23T21:43:12.196Z,72.25
2023-01-23T21:43:44.507Z,73.41
2023-01-23T21:44:17.167Z,72.52
2023-01-23T21:44:52.600Z,72.38
2023-01-23T21:45:25.989Z,72.63
2023-01-23T21:45:58.437Z,72.55
2023-01-23T21:46:30.989Z,72.10
2023-01-23T21:47:03.390Z,72.63
2023-01-23T21:47:35.670Z,73.38
2023-01-23T21:48:07.965Z,74.93
2023-01-23T21:48:40.584Z,74.13
2023-01-23T21:49:12.867Z,72.60
2023-01-23T21:49:45.316Z,73.52
2023-01-23T21:50:18.329Z,73.51
2023-01-23T21:50:50.637Z,74.03
2023-01-23T21:51:25.282Z,73.78
2023-01-23T21:51:57.577Z,73.66
2023-01-23T21:52:30.313Z,72.60
2023-01-23T21:53:02.635Z,73.11
2023-01-23T21:53:36.207Z,75.27
2023-01-23T21:54:09.162Z,74.12
2023-01-23T21:54:42.742Z,73.15
2023-01-23T21:55:15.045Z,73.56
2023-01-23T21:55:51.921Z,73.36
2023-01-23T21:56:24.568Z,73.00
2023-01-23T21:56:56.866Z,72.49
2023-01-23T21:57:29.176Z,73.10
2023-01-23T21:58:01.590Z,72.98
2023-01-23T21:58:34.234Z,73.19
2023-01-23T21:59:06.538Z,72.40
2023-01-23T21:59:38.817Z,72.61
2023-01-23T22:00:30.619Z,72.37
2023-01-23T22:01:29.245Z,72.51
2023-01-23T22:02:01.649Z,71.99
2023-01-23T22:02:34.005Z,71.97
2023-01-23T22:03:06.328Z,72.33
2023-01-23T22:03:38.611Z,72.03
2023-01-23T22:04:18.297Z,72.67
2023-01-23T22:04:50.756Z,72.89
2023-01-23T22:05:23.461Z,72.83
2023-01-23T22:05:58.942Z,72.27
2023-01-23T22:06:32.675Z,72.61
2023-01-23T22:07:04.984Z,72.96
2023-01-23T22:07:37.270Z,72.52
2023-01-23T22:08:09.582Z,72.36
2023-01-23T22:08:42.003Z,72.61
2023-01-23T22:09:17.110Z,72.64
2023-01-23T22:09:49.409Z,72.52
2023-01-23T22:10:21.776Z,72.31
2023-01-23T22:10:54.052Z,72.93
2023-01-23T22:11:26.403Z,72.52
2023-01-23T22:11:58.714Z,72.56
2023-01-23T22:12:31.004Z,72.47
2023-01-23T22:13:03.279Z,72.60
2023-01-23T22:13:36.371Z,72.76
2023-01-23T22:14:08.661Z,72.55
2023-01-23T22:14:40.977Z,72.61
2023-01-23T22:15:13.318Z,71.91
2023-01-23T22:15:45.643Z,72.02
2023-01-23T22:16:22.704Z,72.37
2023-01-23T22:16:57.722Z,71.79
2023-01-23T22:17:30.433Z,71.52
2023-01-23T22:18:02.748Z,71.49
2023-01-23T22:18:35.042Z,71.72
2023-01-23T22:19:07.388Z,72.27
2023-01-23T22:19:39.677Z,72.23
2023-01-23T22:20:12.989Z,72.50
2023-01-23T22:20:45.293Z,72.23
2023-01-23T22:21:17.560Z,72.26
2023-01-23T22:21:49.873Z,72.46
2023-01-23T22:22:22.157Z,72.47
2023-01-23T22:22:54.463Z,72.39
2023-01-23T22:23:27.767Z,72.17
2023-01-23T22:24:04.004Z,72.33
2023-01-23T22:24:36.299Z,72.79
2023-01-23T22:25:08.992Z,72.39